Flight Track Log - Related Links

Times and Time Zones

All times are in EDT time to prevent confusion due to time zone crossing. See the N561DA flight status page for this flight to view local times or setup timezone preferences in your user account.

Time Position Orientation Groundspeed Altitude Reporting Facility
EDT Latitude Longitude Course Direction KTS MPH feet Rate Location/Type
Thu 08:05:33 PM 32.9833 -96.8333 320° Northwest 145 167 1,400  Level Dallas / Fort Worth TRACON
Thu 08:06:33 PM 33.0167 -96.8667 320° Northwest 184 212 3,800 1,400 Climbing Dallas / Fort Worth TRACON
Thu 08:07:33 PM 33.0667 -96.9167 320° Northwest 270 311 4,200 1,750 Climbing Dallas / Fort Worth TRACON
Thu 08:08:33 PM 33.1000 -97.0000 296° West 261 300 7,300 2,905 Climbing Dallas / Fort Worth TRACON
Thu 08:09:39 PM 33.1439 -97.0858 301° West 472 543 10,300 2,714 Climbing Fort Worth Center
Thu 08:10:39 PM 33.1525 -97.1703 277° West 369 425 13,000 2,950 Climbing Fort Worth Center
Thu 08:11:39 PM 33.1403 -97.2719 262° West 298 343 16,200 2,700 Climbing Fort Worth Center
Thu 08:12:39 PM 33.1319 -97.3539 263° West 284 327 18,400 2,150 Climbing Fort Worth Center
Thu 08:13:39 PM 33.1214 -97.4506 263° West 277 319 20,500 1,450 Climbing Fort Worth Center
Thu 08:14:39 PM 33.1108 -97.5425 262° West 291 335 21,300 950 Climbing Fort Worth Center
Thu 08:15:39 PM 33.1003 -97.6492 263° West 318 366 22,400 1,300 Climbing Fort Worth Center
Thu 08:16:39 PM 33.1000 -97.7656 270° West 333 383 23,900 1,400 Climbing Fort Worth Center
Thu 08:17:39 PM 33.1331 -97.8600 293° West 328 377 25,200 1,500 Climbing Fort Worth Center
Thu 08:18:39 PM 33.1639 -97.9694 289° West 330 380 26,900 1,550 Climbing Fort Worth Center
Thu 08:19:39 PM 33.1950 -98.0614 292° West 330 380 28,300 1,600 Climbing Fort Worth Center
Thu 08:20:39 PM 33.2297 -98.1708 291° West 325 374 30,100 1,600 Climbing Fort Worth Center
Thu 08:21:39 PM 33.2583 -98.2681 289° West 325 374 31,500 1,450 Climbing Fort Worth Center
Thu 08:22:39 PM 33.2889 -98.3653 291° West 319 367 33,000 1,300 Climbing Fort Worth Center
Thu 08:23:39 PM 33.3133 -98.4400 291° West 311 358 34,100 1,150 Climbing Fort Worth Center
Thu 08:24:39 PM 33.3458 -98.5525 289° West 298 343 35,300 1,150 Climbing Fort Worth Center
Thu 08:25:39 PM 33.3783 -98.6472 292° West 303 349 36,400 950 Climbing Fort Worth Center
Thu 08:26:39 PM 33.4067 -98.7422 290° West 303 349 37,200 750 Climbing Fort Worth Center
Thu 08:27:39 PM 33.4369 -98.8372 291° West 308 354 37,900 600 Climbing Fort Worth Center
Thu 08:28:39 PM 33.4650 -98.9347 289° West 308 354 38,400 650 Climbing Fort Worth Center
Thu 08:29:39 PM 33.4969 -99.0325 291° West 308 354 39,200 800 Climbing Fort Worth Center
Thu 08:30:39 PM 33.5250 -99.1278 289° West 308 354 40,000 400 Climbing Fort Worth Center
Thu 08:31:39 PM 33.5528 -99.2231 289° West 308 354 40,000  Level Fort Worth Center
Thu 08:32:39 PM 33.5847 -99.3208 291° West 313 360 40,000  Level Fort Worth Center
Thu 08:33:39 PM 33.6144 -99.4239 289° West 313 360 40,000  Level Fort Worth Center
Thu 08:34:39 PM 33.6317 -99.5314 281° West 319 367 40,000  Level Fort Worth Center
Thu 08:35:39 PM 33.6442 -99.6417 278° West 331 381 40,000  Level Fort Worth Center
Thu 08:36:39 PM 33.6547 -99.7542 276° West 337 388 40,000  Level Fort Worth Center
Thu 08:37:39 PM 33.6672 -99.8692 277° West 343 395 40,000  Level Fort Worth Center
Thu 08:38:39 PM 33.6794 -99.9844 277° West 349 402 40,000  Level Fort Worth Center
Thu 08:39:39 PM 33.6894 -100.0969 276° West 355 409 40,000  Level Fort Worth Center
Thu 08:40:39 PM 33.7017 -100.2147 277° West 355 409 40,000  Level Fort Worth Center
Thu 08:41:39 PM 33.7136 -100.3275 277° West 355 409 40,000  Level Fort Worth Center
Thu 08:42:39 PM 33.7256 -100.4428 277° West 355 409 40,000  Level Fort Worth Center
Thu 08:43:39 PM 33.7372 -100.5606 277° West 355 409 40,000  Level Fort Worth Center
Thu 08:44:39 PM 33.7489 -100.6783 277° West 355 409 40,000  Level Fort Worth Center
Thu 08:45:39 PM 33.7581 -100.7961 275° West 355 409 40,000  Level Fort Worth Center
Thu 08:46:39 PM 33.7717 -100.9142 278° West 358 412 40,000  Level Fort Worth Center
Thu 08:47:39 PM 33.7808 -101.0294 275° West 358 412 40,000  Level Fort Worth Center
Thu 08:48:39 PM 33.7925 -101.1350 278° West 363 418 40,000  Level Fort Worth Center
Thu 08:49:39 PM 33.8031 -101.2653 276° West 363 418 40,000  Level Fort Worth Center
Thu 08:50:39 PM 33.8122 -101.3708 276° West 363 418 40,000  Level Fort Worth Center
Thu 08:51:39 PM 33.8247 -101.5014 277° West 363 418 40,000  Level Fort Worth Center
Thu 08:52:39 PM 33.8361 -101.6044 278° West 363 418 40,000  Level Fort Worth Center
Thu 08:53:39 PM 33.8483 -101.7350 276° West 363 418 40,000  Level Fort Worth Center
Thu 08:54:39 PM 33.8592 -101.8406 277° West 363 418 40,000  Level Fort Worth Center
Thu 08:55:39 PM 33.8689 -101.9736 275° West 363 418 40,000  Level Fort Worth Center
Thu 08:56:39 PM 33.8772 -102.0892 275° West 363 418 40,000  Level Fort Worth Center
Thu 08:57:39 PM 33.8875 -102.2047 276° West 358 412 40,000 100 Level Fort Worth Center
Thu 08:58:39 PM 33.8975 -102.3203 276° West 353 406 40,200 350 Climbing Fort Worth Center
Thu 08:59:39 PM 33.9078 -102.4336 276° West 353 406 40,700 451 Climbing Fort Worth Center
Thu 09:00:52 PM 33.9172 -102.5558 275° West 339 390 41,200 444 Climbing Albuquerque Center
Thu 09:01:54 PM 33.9264 -102.6631 276° West 330 380 41,700 484 Climbing Albuquerque Center
Thu 09:02:56 PM 33.9344 -102.7656 275° West 316 364 42,200 488 Climbing Albuquerque Center
Thu 09:03:57 PM 33.9428 -102.8697 276° West 315 362 42,700 390 Climbing Albuquerque Center
Thu 09:04:59 PM 33.9542 -102.9906 277° West 305 351 43,000 146 Climbing Albuquerque Center
Thu 09:06:00 PM 33.9733 -103.0892 283° West 305 351 43,000  Level Albuquerque Center
Thu 09:07:02 PM 33.9906 -103.1892 282° West 303 349 43,000  Level Albuquerque Center
Thu 09:08:04 PM 34.0081 -103.2947 281° West 316 364 43,000  Level Albuquerque Center
Thu 09:09:05 PM 34.0233 -103.4042 280° West 324 373 43,000  Level Albuquerque Center
Thu 09:10:07 PM 34.0414 -103.5097 282° West 326 375 43,000  Level Albuquerque Center
Thu 09:11:09 PM 34.0572 -103.6200 280° West 330 380 43,000  Level Albuquerque Center
Thu 09:12:10 PM 34.0781 -103.7506 281° West 332 382 43,000  Level Albuquerque Center
Thu 09:13:12 PM 34.0947 -103.8631 280° West 334 384 43,000  Level Albuquerque Center
Thu 09:14:13 PM 34.1125 -103.9728 281° West 333 383 43,000  Level Albuquerque Center
Thu 09:15:15 PM 34.1300 -104.0839 281° West 332 382 43,000  Level Albuquerque Center
Thu 09:16:16 PM 34.1478 -104.1931 281° West 330 380 43,000  Level Albuquerque Center
Thu 09:17:18 PM 34.1636 -104.3047 280° West 332 382 43,000  Level Albuquerque Center
Thu 09:18:19 PM 34.1814 -104.4183 281° West 339 390 43,000  Level Albuquerque Center
Thu 09:19:21 PM 34.1986 -104.5317 280° West 339 390 43,000  Level Albuquerque Center
Thu 09:20:22 PM 34.2167 -104.6433 281° West 337 388 43,000  Level Albuquerque Center
Thu 09:21:24 PM 34.2331 -104.7589 280° West 342 394 43,000  Level Albuquerque Center
Thu 09:22:25 PM 34.2533 -104.8917 281° West 341 392 43,000  Level Albuquerque Center
Thu 09:23:27 PM 34.2703 -105.0083 280° West 346 398 43,000  Level Albuquerque Center
Thu 09:24:28 PM 34.2881 -105.1250 280° West 349 402 43,000  Level Albuquerque Center
Thu 09:25:30 PM 34.3039 -105.2400 279° West 347 399 43,000  Level Albuquerque Center
Thu 09:26:31 PM 34.3211 -105.3544 280° West 344 396 43,000  Level Albuquerque Center
Thu 09:27:33 PM 34.3383 -105.4703 280° West 346 398 43,000  Level Albuquerque Center
Thu 09:28:34 PM 34.3539 -105.5844 279° West 343 395 43,000  Level Albuquerque Center
Thu 09:29:36 PM 34.3697 -105.6983 280° West 341 392 43,000  Level Albuquerque Center
Thu 09:30:37 PM 34.3725 -105.8150 272° West 344 396 43,000  Level Albuquerque Center
Thu 09:31:38 PM 34.3767 -105.9308 273° West 343 395 43,000  Level Albuquerque Center
Thu 09:32:40 PM 34.3808 -106.0483 272° West 346 398 43,000  Level Albuquerque Center
Thu 09:33:41 PM 34.3850 -106.1647 273° West 345 397 43,000 -49 Level Albuquerque Center
Thu 09:34:43 PM 34.3878 -106.2769 272° West 346 398 42,900  Descending Albuquerque Center
Thu 09:35:44 PM 34.3911 -106.3944 272° West 348 400 43,000 49 Climbing Albuquerque Center
Thu 09:36:45 PM 34.3956 -106.5328 272° West 345 397 43,000  Level Albuquerque Center
Thu 09:37:47 PM 34.4006 -106.6494 273° West 344 396 43,000  Level Albuquerque Center
Thu 09:38:48 PM 34.4031 -106.7653 272° West 345 397 43,000  Level Albuquerque Center
Thu 09:39:49 PM 34.4069 -106.8850 272° West 351 404 43,000  Level Albuquerque Center
Thu 09:40:51 PM 34.4106 -107.0028 272° West 353 406 43,000  Level Albuquerque Center
Thu 09:41:52 PM 34.4136 -107.1217 272° West 349 402 43,000  Level Albuquerque Center
Thu 09:42:53 PM 34.4164 -107.2392 272° West 349 402 43,000  Level Albuquerque Center
Thu 09:43:54 PM 34.4197 -107.3572 272° West 349 402 43,000  Level Albuquerque Center
Thu 09:44:56 PM 34.4225 -107.4758 272° West 352 405 43,000  Level Albuquerque Center
Thu 09:45:57 PM 34.4258 -107.5942 272° West 349 402 43,000  Level Albuquerque Center
Thu 09:46:58 PM 34.4281 -107.7114 271° West 349 402 43,000  Level Albuquerque Center
Thu 09:48:00 PM 34.4311 -107.8289 272° West 349 402 43,000  Level Albuquerque Center
Thu 09:49:01 PM 34.4336 -107.9706 271° West 349 402 43,000  Level Albuquerque Center
Thu 09:50:02 PM 34.4356 -108.0878 271° West 349 402 43,000  Level Albuquerque Center
Thu 09:51:03 PM 34.4389 -108.2061 272° West 350 403 43,000  Level Albuquerque Center
Thu 09:52:05 PM 34.4411 -108.3236 271° West 350 403 43,000  Level Albuquerque Center
Thu 09:53:06 PM 34.4425 -108.4411 271° West 349 402 43,000  Level Albuquerque Center
Thu 09:54:07 PM 34.4444 -108.5603 271° West 350 403 43,000  Level Albuquerque Center
Thu 09:55:08 PM 34.4467 -108.6914 271° West 349 402 43,000  Level Albuquerque Center
Thu 09:56:09 PM 34.4486 -108.8019 271° West 346 398 43,000  Level Albuquerque Center
Thu 09:57:11 PM 34.4492 -108.9142 270° West 346 398 43,000  Level Albuquerque Center
Thu 09:58:12 PM 34.4517 -109.0431 271° West 345 397 43,000  Level Albuquerque Center
Thu 09:59:13 PM 34.4531 -109.1544 271° West 345 397 43,000  Level Albuquerque Center
Thu 10:00:15 PM 34.4544 -109.2833 271° West 343 395 43,000  Level Albuquerque Center
Thu 10:01:17 PM 34.4547 -109.3942 270° West 343 395 43,000  Level Albuquerque Center
Thu 10:02:18 PM 34.4550 -109.5047 270° West 344 396 43,000  Level Albuquerque Center
Thu 10:03:19 PM 34.4569 -109.6328 271° West 342 394 43,000  Level Albuquerque Center
Thu 10:04:20 PM 34.4575 -109.7447 270° West 344 396 43,000  Level Albuquerque Center
Thu 10:05:22 PM 34.4578 -109.8728 270° West 342 394 43,000  Level Albuquerque Center
Thu 10:06:23 PM 34.4656 -109.9836 275° West 343 395 43,000  Level Albuquerque Center
Thu 10:07:24 PM 34.4747 -110.0914 276° West 338 389 43,000  Level Albuquerque Center
Thu 10:08:25 PM 34.4844 -110.2200 275° West 341 392 43,000  Level Albuquerque Center
Thu 10:09:26 PM 34.4925 -110.3278 275° West 339 390 43,000  Level Albuquerque Center
Thu 10:10:28 PM 34.5008 -110.4461 275° West 345 397 43,000  Level Albuquerque Center
Thu 10:11:29 PM 34.5114 -110.5594 276° West 343 395 43,000  Level Albuquerque Center
Thu 10:12:30 PM 34.5200 -110.6747 275° West 337 388 43,000  Level Albuquerque Center
Thu 10:13:31 PM 34.5236 -110.7811 272° West 331 381 43,000  Level Albuquerque Center
Thu 10:14:33 PM 34.5308 -110.8933 274° West 333 383 43,000  Level Albuquerque Center
Thu 10:15:34 PM 34.5389 -111.0050 275° West 333 383 43,000  Level Albuquerque Center
Thu 10:16:35 PM 34.5472 -111.1161 275° West 333 383 43,000  Level Albuquerque Center
Thu 10:17:36 PM 34.5553 -111.2494 274° West 333 383 43,000  Level Albuquerque Center
Thu 10:18:38 PM 34.5647 -111.3628 276° West 338 389 43,000  Level Albuquerque Center
Thu 10:19:39 PM 34.5708 -111.4739 274° West 334 384 43,000  Level Albuquerque Center
Thu 10:20:40 PM 34.5789 -111.5864 275° West 336 387 43,000  Level Albuquerque Center
Thu 10:21:41 PM 34.5858 -111.7006 274° West 339 390 43,000  Level Albuquerque Center
Thu 10:22:43 PM 34.5931 -111.8133 274° West 340 391 43,000  Level Albuquerque Center
Thu 10:23:44 PM 34.5994 -111.9283 274° West 341 392 43,000  Level Albuquerque Center
Thu 10:24:45 PM 34.6083 -112.0650 275° West 341 392 43,000  Level Albuquerque Center
Thu 10:25:47 PM 34.6147 -112.1794 274° West 342 394 43,000  Level Albuquerque Center
Thu 10:26:48 PM 34.6222 -112.2939 275° West 342 394 43,000  Level Albuquerque Center
Thu 10:27:49 PM 34.6292 -112.4000 275° West 344 396 43,000  Level Albuquerque Center
Thu 10:28:51 PM 34.6356 -112.5150 274° West 344 396 43,000  Level Albuquerque Center
Thu 10:29:52 PM 34.6433 -112.6544 274° West 345 397 43,000  Level Albuquerque Center
Thu 10:30:53 PM 34.6497 -112.7719 274° West 348 400 43,000  Level Albuquerque Center
Thu 10:31:54 PM 34.6564 -112.8892 274° West 348 400 43,000  Level Albuquerque Center
Thu 10:32:56 PM 34.6633 -113.0083 274° West 352 405 43,000  Level Albuquerque Center
Thu 10:33:57 PM 34.6681 -113.1256 273° West 350 403 43,000  Level Albuquerque Center
Thu 10:34:58 PM 34.6747 -113.2439 274° West 351 404 43,000  Level Albuquerque Center
Thu 10:36:00 PM 34.6800 -113.3625 273° West 353 406 43,000  Level Albuquerque Center
Thu 10:37:01 PM 34.6864 -113.4822 274° West 353 406 43,000  Level Albuquerque Center
Thu 10:38:02 PM 34.6917 -113.6008 273° West 354 407 43,000  Level Albuquerque Center
Thu 10:39:04 PM 34.6978 -113.7206 274° West 355 409 43,000  Level Albuquerque Center
Thu 10:40:05 PM 34.7042 -113.8644 273° West 356 410 43,000  Level Albuquerque Center
Thu 10:40:48 PM 34.7078 -113.9361 274° West 356 410 43,000  Level Los Angeles Center
Thu 10:41:50 PM 34.7144 -114.0667 274° West 357 411 43,000  Level Los Angeles Center
Thu 10:42:52 PM 34.7194 -114.1875 273° West 359 413 43,000 -581 Level Los Angeles Center
Thu 10:43:54 PM 34.7253 -114.3119 273° West 366 421 41,800 -1,610 Descending Los Angeles Center
Thu 10:44:55 PM 34.7308 -114.4394 273° West 377 434 39,700 -2,488 Descending Los Angeles Center
Thu 10:45:57 PM 34.6992 -114.5839 255° West 371 427 36,700 -2,565 Descending Los Angeles Center
Thu 10:46:59 PM 34.6861 -114.7044 263° West 364 419 34,400 -1,306 Descending Los Angeles Center
Thu 10:48:01 PM 34.6975 -114.8300 276° West 372 428 34,000 -195 Descending Los Angeles Center
Thu 10:49:02 PM 34.7047 -114.9517 274° West 364 419 34,000  Level Los Angeles Center
Thu 10:50:04 PM 34.7125 -115.0722 275° West 358 412 34,000  Level Los Angeles Center
Thu 10:51:06 PM 34.7206 -115.1933 275° West 359 413 34,000 -683 Level Los Angeles Center
Thu 10:52:07 PM 34.7294 -115.3211 275° West 374 430 32,600 -1,415 Descending Los Angeles Center
Thu 10:53:09 PM 34.7372 -115.4511 274° West 382 440 31,100 -1,500 Descending Los Angeles Center
Thu 10:54:11 PM 34.7464 -115.5825 275° West 380 437 29,500 -1,512 Descending Los Angeles Center
Thu 10:55:12 PM 34.7533 -115.7097 274° West 379 436 28,000 -1,610 Descending Los Angeles Center
Thu 10:56:14 PM 34.7625 -115.8681 274° West 390 449 26,200 -1,597 Descending Los Angeles Center
Thu 10:57:16 PM 34.7708 -115.9997 274° West 390 449 24,700 -1,366 Descending Los Angeles Center
Thu 10:58:17 PM 34.7769 -116.1278 273° West 386 444 23,400 -1,220 Descending Los Angeles Center
Thu 10:59:19 PM 34.7850 -116.2525 275° West 375 432 22,200 -1,161 Descending Los Angeles Center
Thu 11:00:21 PM 34.7928 -116.3767 274° West 369 425 21,000 -1,073 Descending Los Angeles Center
Thu 11:01:22 PM 34.7958 -116.5017 272° West 371 427 20,000 -488 Descending Los Angeles Center
Thu 11:02:24 PM 34.7814 -116.6203 262° West 356 410 20,000  Level Los Angeles Center
Thu 11:03:26 PM 34.7708 -116.7342 264° West 341 392 20,000  Level Los Angeles Center
Thu 11:04:27 PM 34.7569 -116.8717 263° West 341 392 20,000  Level Los Angeles Center
Thu 11:05:29 PM 34.7439 -116.9886 262° West 346 398 20,000 -290 Level Los Angeles Center
Thu 11:06:31 PM 34.7322 -117.1064 263° West 350 403 19,400 -878 Descending Los Angeles Center
Thu 11:07:32 PM 34.7203 -117.2253 263° West 353 406 18,200 -1,073 Descending Los Angeles Center
Thu 11:08:34 PM 34.7092 -117.3389 263° West 340 391 17,200 -1,016 Descending Los Angeles Center
Thu 11:09:36 PM 34.6967 -117.4508 262° West 334 384 16,100 -1,171 Descending Los Angeles Center
Thu 11:10:37 PM 34.6803 -117.5644 260° West 334 384 14,800 -1,171 Descending Los Angeles Center
Thu 11:11:39 PM 34.6639 -117.6744 260° West 336 387 13,700 -1,113 Descending Los Angeles Center
Thu 11:12:41 PM 34.6478 -117.7917 261° West 348 400 12,500 -823 Descending Los Angeles Center
Thu 11:13:43 PM 34.6294 -117.9228 260° West 327 376 12,000 -244 Descending Los Angeles Center
Thu 11:14:44 PM 34.6147 -118.0264 260° West 314 361 12,000 -585 Level Los Angeles Center
Thu 11:15:46 PM 34.5994 -118.1297 260° West 311 358 10,800 -1,306 Descending Los Angeles Center
Thu 11:16:48 PM 34.5836 -118.2397 260° West 309 356 9,300 -1,366 Descending Los Angeles Center
Thu 11:17:49 PM 34.5683 -118.3442 260° West 316 364 8,000 -634 Descending Los Angeles Center
Thu 11:18:51 PM 34.5475 -118.4397 255° West 298 343 8,000 -339 Level Los Angeles Center
Thu 11:19:53 PM 34.5056 -118.5100 234° Southwest 273 314 7,300 -780 Descending Los Angeles Center
Thu 11:20:54 PM 34.4486 -118.5756 224° Southwest 284 327 6,400 -1,024 Descending Los Angeles Center
Thu 11:21:56 PM 34.3597 -118.6094 197° South 288 331 5,200 -1,012 Descending Los Angeles Center
Thu 11:22:17 PM 34.3333 -118.6000 164° South 279 321 5,000 -148 Descending Southern California TRACON
Thu 11:23:17 PM 34.2667 -118.6000 180° South 236 272 5,000 -350 Level Southern California TRACON
Thu 11:24:17 PM 34.2167 -118.5667 151° Southeast 217 250 4,300 -950 Descending Southern California TRACON
Thu 11:25:17 PM 34.2000 -118.5167 112° Southeast 165 190 3,100 -950 Descending Southern California TRACON
Thu 11:26:17 PM 34.2000 -118.4667 90° East 125 144 2,400 -650 Descending Southern California TRACON
Thu 11:27:17 PM 34.2000 -118.4333 90° East 105 121 1,800 -545 Descending Southern California TRACON
Thu 11:28:18 PM 34.2000 -118.4000 90° East 99 114 1,300 -270 Descending Southern California TRACON
Thu 11:29:08 PM 34.1992 -118.3736 92° East 119 137 1,300  Level Los Angeles Center
Thu 11:31:00 PM 34.2000 -118.3500 90° East  Level FlightAware Approximate

Login

Don't have an account? Register now (free) for customized features, flight alerts, and more!